METAR Data
IDs: Format: Raw Decoded Include TAF

Data at: 1316 UTC 26 Feb 2021

EDDM 261250Z 27006KT CAVOK 16/02 Q1028 NOSIG